Crumlin, United Kingdom
Current Conditions -  °F | °C
As of 3:50 PM on Friday 28 Nov 2014 (Local Time) from EGAA Reporting Station
Broken Clouds Broken Clouds  
Wind Chill: 50°   Ceiling: 1700
Heat Index: 50°   Visibility: 5mi
Dew Point: 48°   Wind: 8mph
Humidity: 94%   Direction: 90°E
Pressure: 29.74"   Gusts: NA
Location:  54.62°N, 6.22°W
Report Text: EGAA 281550Z 09007KT 8000 BKN017 10/09 Q1007
Loading
Personal Weather Stations






























Interactive Weather Map New forecast layout! Learn more

10-Day Weather Forecast

Advertisements
Track Severe Weather on mobile